createdAt,value
2018-12-23T00:01:00.347Z,6.43
2018-12-23T00:03:28.538Z,5.73
2018-12-23T00:05:56.737Z,3.97
2018-12-23T00:08:24.948Z,6.03
2018-12-23T00:10:53.119Z,6.10
2018-12-23T00:13:21.331Z,5.10
2018-12-23T00:15:49.510Z,4.73
2018-12-23T00:18:17.714Z,5.47
2018-12-23T00:20:45.894Z,5.30
2018-12-23T00:23:18.469Z,5.60
2018-12-23T00:25:46.675Z,5.17
2018-12-23T00:28:14.886Z,5.33
2018-12-23T00:30:43.073Z,5.80
2018-12-23T00:33:11.270Z,4.80
2018-12-23T00:35:39.439Z,5.47
2018-12-23T00:38:07.666Z,5.07
2018-12-23T00:40:35.863Z,5.57
2018-12-23T00:43:04.078Z,6.43
2018-12-23T00:45:32.514Z,6.07
2018-12-23T00:48:00.711Z,5.93
2018-12-23T00:50:28.890Z,5.03
2018-12-23T00:52:57.102Z,5.43
2018-12-23T00:55:25.295Z,5.40
2018-12-23T01:05:32.154Z,5.30
2018-12-23T01:08:12.084Z,5.47
2018-12-23T01:11:00.510Z,5.00
2018-12-23T01:13:41.727Z,6.10
2018-12-23T01:16:22.693Z,6.20
2018-12-23T01:19:07.294Z,4.63
2018-12-23T01:21:50.104Z,5.90
2018-12-23T01:24:30.697Z,5.53
2018-12-23T01:26:59.952Z,4.90
2018-12-23T01:29:48.465Z,4.80
2018-12-23T01:32:36.390Z,4.90
2018-12-23T01:35:24.170Z,5.77
2018-12-23T01:41:04.495Z,6.07
2018-12-23T01:43:45.403Z,5.97
2018-12-23T01:46:25.986Z,6.60
2018-12-23T01:49:06.690Z,4.67
2018-12-23T01:51:47.464Z,5.07
2018-12-23T01:54:28.630Z,5.27
2018-12-23T01:57:09.396Z,6.17
2018-12-23T01:59:50.765Z,5.47
2018-12-23T02:02:31.240Z,5.87
2018-12-23T02:05:12.395Z,5.20
2018-12-23T02:07:51.997Z,5.23
2018-12-23T02:10:40.489Z,5.17
2018-12-23T02:13:21.711Z,6.20
2018-12-23T02:16:02.503Z,6.10
2018-12-23T02:18:43.256Z,4.07
2018-12-23T02:21:24.590Z,4.87
2018-12-23T02:24:05.953Z,5.20
2018-12-23T02:26:46.916Z,6.03
2018-12-23T02:29:28.179Z,7.03
2018-12-23T02:32:09.171Z,6.00
2018-12-23T02:34:50.212Z,5.57
2018-12-23T02:37:31.024Z,6.23
2018-12-23T02:40:12.029Z,6.00
2018-12-23T02:42:53.103Z,5.60
2018-12-23T02:45:34.149Z,5.00
2018-12-23T02:48:15.612Z,4.90
2018-12-23T02:50:56.503Z,5.17
2018-12-23T02:53:37.845Z,5.60
2018-12-23T02:56:07.237Z,4.67
2018-12-23T02:58:55.815Z,5.63
2018-12-23T03:01:44.228Z,4.50
2018-12-23T03:04:24.999Z,4.07
2018-12-23T03:07:06.037Z,4.60
2018-12-23T03:09:47.433Z,5.07
2018-12-23T03:12:28.776Z,4.87
2018-12-23T03:14:58.122Z,5.10
2018-12-23T03:17:46.591Z,4.93
2018-12-23T03:20:27.932Z,5.47
2018-12-23T03:23:08.893Z,4.53
2018-12-23T03:25:49.934Z,4.23
2018-12-23T03:28:30.866Z,3.87
2018-12-23T03:31:11.827Z,4.73
2018-12-23T03:33:52.703Z,4.23
2018-12-23T03:36:34.230Z,4.57
2018-12-23T03:39:15.649Z,3.40
2018-12-23T03:41:56.229Z,3.67
2018-12-23T03:44:37.246Z,3.47
2018-12-23T03:47:18.570Z,4.70
2018-12-23T03:49:59.665Z,3.00
2018-12-23T03:52:40.482Z,3.40
2018-12-23T03:55:21.535Z,3.77
2018-12-23T03:58:02.342Z,3.37
2018-12-23T04:00:43.241Z,3.23
2018-12-23T04:03:24.980Z,4.10
2018-12-23T04:06:05.618Z,4.03
2018-12-23T04:08:46.760Z,3.33
2018-12-23T04:11:28.059Z,4.00
2018-12-23T04:14:09.443Z,3.83
2018-12-23T04:16:50.696Z,3.53
2018-12-23T04:19:31.424Z,3.83
2018-12-23T04:22:12.330Z,3.80
2018-12-23T04:24:53.532Z,4.20
2018-12-23T04:27:34.301Z,4.30
2018-12-23T04:30:15.554Z,3.87
2018-12-23T04:32:56.789Z,3.50
2018-12-23T04:38:19.882Z,4.00
2018-12-23T04:41:08.322Z,4.37
2018-12-23T04:43:49.980Z,4.10
2018-12-23T04:46:31.421Z,4.13
2018-12-23T04:49:12.117Z,4.30
2018-12-23T04:51:53.067Z,3.93
2018-12-23T04:54:34.377Z,4.50
2018-12-23T04:57:15.305Z,4.20
2018-12-23T04:59:56.537Z,4.33
2018-12-23T05:02:37.417Z,4.37
2018-12-23T05:05:18.765Z,3.93
2018-12-23T05:07:59.405Z,3.80
2018-12-23T05:16:50.965Z,3.73
2018-12-23T05:19:32.891Z,3.80
2018-12-23T05:22:12.440Z,4.00
2018-12-23T05:24:53.261Z,4.70
2018-12-23T05:27:34.299Z,3.90
2018-12-23T05:30:15.236Z,3.40
2018-12-23T05:32:56.399Z,3.37
2018-12-23T05:35:37.200Z,3.23
2018-12-23T05:38:18.637Z,3.30
2018-12-23T05:40:59.592Z,3.00
2018-12-23T05:43:40.834Z,3.33
2018-12-23T05:46:21.947Z,2.57
2018-12-23T05:49:03.084Z,3.70
2018-12-23T05:51:43.876Z,2.73
2018-12-23T05:54:24.816Z,3.23
2018-12-23T05:57:05.804Z,3.33
2018-12-23T06:02:28.604Z,4.77
2018-12-23T06:04:57.870Z,3.10
2018-12-23T06:07:27.091Z,2.80
2018-12-23T06:10:15.512Z,3.47
2018-12-23T06:12:56.909Z,2.80
2018-12-23T06:18:52.695Z,2.97
2018-12-23T06:24:45.841Z,2.70
2018-12-23T06:27:27.132Z,2.97
2018-12-23T06:30:08.413Z,2.50
2018-12-23T06:32:49.619Z,2.40
2018-12-23T06:35:30.640Z,2.70
2018-12-23T06:37:59.916Z,2.57
2018-12-23T06:40:48.252Z,2.37
2018-12-23T06:43:29.613Z,2.53
2018-12-23T06:45:58.860Z,2.17
2018-12-23T06:48:47.225Z,2.47
2018-12-23T06:51:35.595Z,2.33
2018-12-23T06:54:16.808Z,2.70
2018-12-23T06:56:57.491Z,2.87
2018-12-23T06:59:38.402Z,3.17
2018-12-23T07:02:19.196Z,2.87
2018-12-23T07:05:00.455Z,2.90
2018-12-23T07:07:41.688Z,2.63
2018-12-23T07:10:22.774Z,3.33
2018-12-23T07:13:03.368Z,2.90
2018-12-23T07:15:44.600Z,3.30
2018-12-23T07:18:25.560Z,2.57
2018-12-23T07:20:55.385Z,4.03
2018-12-23T07:23:45.096Z,3.17
2018-12-23T07:26:25.761Z,3.03
2018-12-23T07:29:08.049Z,3.20
2018-12-23T07:31:49.416Z,3.40
2018-12-23T07:34:30.736Z,3.10
2018-12-23T07:37:12.218Z,3.53
2018-12-23T07:39:53.410Z,2.57
2018-12-23T07:42:34.012Z,3.10
2018-12-23T07:45:14.608Z,3.40
2018-12-23T07:47:43.848Z,2.87
2018-12-23T07:50:32.392Z,3.20
2018-12-23T07:53:20.854Z,2.57
2018-12-23T07:56:01.728Z,3.63
2018-12-23T07:58:43.144Z,2.90
2018-12-23T08:01:24.689Z,2.27
2018-12-23T08:04:05.476Z,2.60
2018-12-23T08:06:34.720Z,2.53
2018-12-23T08:12:18.157Z,3.57
2018-12-23T08:14:59.070Z,2.77
2018-12-23T08:17:40.488Z,2.60
2018-12-23T08:20:28.824Z,2.23
2018-12-23T08:26:17.674Z,2.80
2018-12-23T08:28:47.461Z,2.90
2018-12-23T08:31:16.764Z,2.63
2018-12-23T08:36:58.897Z,2.90
2018-12-23T08:39:39.868Z,3.57
2018-12-23T08:42:21.497Z,3.60
2018-12-23T08:45:05.378Z,2.93
2018-12-23T08:47:46.747Z,3.00
2018-12-23T08:50:28.233Z,3.23
2018-12-23T08:53:09.280Z,2.93
2018-12-23T08:55:50.144Z,2.73
2018-12-23T08:58:31.185Z,3.90
2018-12-23T09:01:12.090Z,3.07
2018-12-23T09:03:53.560Z,3.27
2018-12-23T09:06:34.900Z,2.60
2018-12-23T09:09:16.208Z,2.77
2018-12-23T09:11:57.036Z,2.13
2018-12-23T09:14:38.042Z,2.97
2018-12-23T09:17:18.968Z,2.40
2018-12-23T09:20:00.154Z,2.80
2018-12-23T09:22:41.242Z,2.70
2018-12-23T09:27:54.189Z,2.90
2018-12-23T09:30:35.245Z,3.57
2018-12-23T09:33:04.672Z,2.83
2018-12-23T09:35:53.011Z,3.10
2018-12-23T09:38:41.924Z,2.70
2018-12-23T09:41:11.272Z,3.00
2018-12-23T09:43:40.499Z,2.73
2018-12-23T09:46:09.897Z,2.80
2018-12-23T09:48:39.206Z,2.53
2018-12-23T09:51:08.522Z,3.07
2018-12-23T09:53:37.747Z,3.13
2018-12-23T09:56:07.089Z,3.03
2018-12-23T09:58:36.757Z,3.07
2018-12-23T10:01:06.129Z,2.90
2018-12-23T10:03:35.415Z,3.40
2018-12-23T10:06:04.744Z,2.87
2018-12-23T10:08:33.979Z,2.83
2018-12-23T10:11:03.329Z,3.37
2018-12-23T10:13:32.596Z,2.80
2018-12-23T10:16:02.001Z,2.60
2018-12-23T10:18:31.228Z,3.00
2018-12-23T10:21:00.480Z,3.37
2018-12-23T10:23:29.796Z,2.93
2018-12-23T10:25:59.212Z,3.07
2018-12-23T10:28:28.456Z,3.13
2018-12-23T10:30:57.776Z,3.13
2018-12-23T10:33:27.169Z,2.90
2018-12-23T10:35:56.402Z,3.27
2018-12-23T10:38:25.705Z,2.77
2018-12-23T10:40:55.116Z,2.83
2018-12-23T10:43:24.365Z,3.13
2018-12-23T10:45:53.723Z,2.90
2018-12-23T10:48:23.017Z,3.07
2018-12-23T10:50:52.281Z,2.60
2018-12-23T10:53:21.496Z,2.70
2018-12-23T10:55:50.745Z,2.30
2018-12-23T10:58:20.064Z,2.73
2018-12-23T11:00:49.408Z,2.30
2018-12-23T11:03:18.996Z,2.87
2018-12-23T11:05:48.480Z,2.03
2018-12-23T11:08:17.708Z,3.17
2018-12-23T11:10:46.988Z,2.40
2018-12-23T11:13:16.226Z,2.40
2018-12-23T11:15:45.489Z,2.30
2018-12-23T11:18:14.779Z,2.20
2018-12-23T11:20:44.130Z,2.63
2018-12-23T11:23:13.380Z,2.10
2018-12-23T11:25:42.645Z,2.33
2018-12-23T11:28:11.880Z,2.43
2018-12-23T11:30:41.208Z,2.03
2018-12-23T11:33:10.468Z,2.20
2018-12-23T11:35:39.894Z,2.40
2018-12-23T11:38:09.124Z,2.07
2018-12-23T11:40:38.454Z,2.00
2018-12-23T11:43:07.756Z,2.00
2018-12-23T11:45:37.148Z,1.90
2018-12-23T11:48:06.359Z,1.50
2018-12-23T11:50:35.701Z,2.10
2018-12-23T11:53:04.995Z,1.83
2018-12-23T11:55:34.404Z,1.50
2018-12-23T11:58:03.798Z,1.53
2018-12-23T12:00:33.209Z,1.57
2018-12-23T12:03:21.620Z,1.57
2018-12-23T12:06:03.154Z,2.33
2018-12-23T12:08:44.389Z,2.50
2018-12-23T12:11:25.803Z,2.60
2018-12-23T12:14:06.936Z,2.30
2018-12-23T12:16:47.839Z,2.57
2018-12-23T12:19:28.789Z,2.70
2018-12-23T12:22:09.782Z,2.30
2018-12-23T12:24:50.557Z,1.73
2018-12-23T12:27:31.854Z,2.47
2018-12-23T12:30:13.108Z,2.27
2018-12-23T12:32:54.128Z,2.23
2018-12-23T12:35:34.793Z,1.50
2018-12-23T12:38:15.709Z,1.93
2018-12-23T12:40:56.903Z,1.87
2018-12-23T12:43:37.601Z,2.50
2018-12-23T12:46:18.767Z,1.70
2018-12-23T12:49:00.187Z,1.80
2018-12-23T12:51:40.795Z,1.77
2018-12-23T12:54:21.612Z,1.90
2018-12-23T12:57:02.285Z,2.00
2018-12-23T12:59:42.881Z,2.00
2018-12-23T13:02:24.085Z,2.07
2018-12-23T13:05:05.236Z,1.90
2018-12-23T13:07:46.364Z,1.73
2018-12-23T13:10:27.429Z,1.60
2018-12-23T13:13:08.129Z,1.40
2018-12-23T13:15:49.512Z,2.00
2018-12-23T13:18:30.608Z,1.73
2018-12-23T13:21:11.403Z,1.27
2018-12-23T13:23:52.233Z,1.10
2018-12-23T13:26:33.125Z,0.70
2018-12-23T13:29:14.165Z,1.00
2018-12-23T13:31:55.176Z,1.37
2018-12-23T13:34:36.464Z,1.30
2018-12-23T13:37:17.692Z,1.40
2018-12-23T13:39:58.776Z,1.17
2018-12-23T13:42:40.088Z,1.40
2018-12-23T13:45:20.758Z,2.03
2018-12-23T13:48:01.988Z,1.87
2018-12-23T13:50:42.698Z,1.40
2018-12-23T13:53:23.360Z,1.40
2018-12-23T13:56:04.460Z,3.00
2018-12-23T13:58:45.716Z,1.73
2018-12-23T14:04:24.676Z,2.30
2018-12-23T14:07:05.458Z,2.43
2018-12-23T14:09:46.673Z,2.00
2018-12-23T14:12:27.870Z,1.50
2018-12-23T14:15:08.850Z,1.50
2018-12-23T14:17:50.031Z,1.90
2018-12-23T14:20:30.924Z,1.40
2018-12-23T14:23:11.932Z,2.40
2018-12-23T14:25:53.129Z,2.10
2018-12-23T14:28:34.137Z,1.40
2018-12-23T14:31:15.037Z,1.20
2018-12-23T14:33:56.184Z,1.20
2018-12-23T14:36:37.413Z,1.30
2018-12-23T14:39:25.750Z,0.80
2018-12-23T14:42:01.434Z,1.30
2018-12-23T14:44:42.327Z,1.20
2018-12-23T14:47:23.479Z,1.20
2018-12-23T14:50:04.266Z,1.77
2018-12-23T14:52:45.145Z,1.70
2018-12-23T14:55:26.392Z,1.70
2018-12-23T14:58:07.285Z,1.10
2018-12-23T15:00:48.432Z,1.67
2018-12-23T15:03:29.569Z,1.40
2018-12-23T15:06:10.669Z,1.23
2018-12-23T15:08:51.540Z,1.07
2018-12-23T15:11:31.101Z,1.00
2018-12-23T15:14:19.618Z,0.90
2018-12-23T15:17:08.080Z,0.80
2018-12-23T15:19:37.300Z,0.87
2018-12-23T15:22:25.700Z,0.90
2018-12-23T15:25:14.099Z,1.10
2018-12-23T15:27:55.125Z,0.80
2018-12-23T15:30:35.860Z,0.90
2018-12-23T15:33:17.029Z,1.17
2018-12-23T15:35:58.505Z,0.93
2018-12-23T15:38:46.739Z,1.10
2018-12-23T15:41:35.096Z,1.10
2018-12-23T15:44:16.001Z,1.00
2018-12-23T15:46:57.450Z,1.30
2018-12-23T15:49:38.701Z,1.40
2018-12-23T15:52:19.928Z,1.27
2018-12-23T15:55:01.062Z,1.20
2018-12-23T15:57:42.107Z,1.50
2018-12-23T16:00:23.094Z,1.37
2018-12-23T16:03:04.277Z,1.90
2018-12-23T16:05:45.456Z,1.90
2018-12-23T16:08:26.437Z,1.57
2018-12-23T16:11:07.460Z,1.87
2018-12-23T16:17:01.070Z,1.90
2018-12-23T16:19:42.088Z,1.60
2018-12-23T16:22:23.625Z,1.70
2018-12-23T16:25:04.590Z,1.83
2018-12-23T16:27:45.971Z,1.50
2018-12-23T16:30:27.156Z,1.50
2018-12-23T16:33:08.412Z,1.73
2018-12-23T16:35:49.701Z,1.50
2018-12-23T16:38:30.636Z,1.63
2018-12-23T16:41:11.461Z,1.90
2018-12-23T16:47:11.972Z,2.27
2018-12-23T16:49:52.513Z,2.40
2018-12-23T16:52:33.147Z,1.90
2018-12-23T16:55:14.248Z,3.03
2018-12-23T16:57:55.107Z,4.30
2018-12-23T17:00:35.723Z,6.10
2018-12-23T17:03:16.291Z,6.67
2018-12-23T17:09:09.611Z,9.67
2018-12-23T17:11:50.528Z,9.50
2018-12-23T17:14:31.287Z,8.80
2018-12-23T17:17:12.018Z,10.23
2018-12-23T17:19:53.151Z,9.87
2018-12-23T17:22:33.995Z,7.67
2018-12-23T17:25:15.143Z,10.33
2018-12-23T17:27:56.295Z,8.30
2018-12-23T17:30:36.840Z,9.73
2018-12-23T17:33:17.583Z,10.10
2018-12-23T17:35:58.440Z,9.53
2018-12-23T17:38:38.995Z,9.33
2018-12-23T17:41:19.597Z,7.07
2018-12-23T17:44:00.185Z,10.50
2018-12-23T17:46:40.828Z,9.10
2018-12-23T17:49:21.800Z,9.93
2018-12-23T17:52:02.545Z,8.67
2018-12-23T17:54:43.048Z,7.97
2018-12-23T17:57:12.056Z,7.77
2018-12-23T18:00:00.168Z,7.17
2018-12-23T18:02:29.067Z,7.03
2018-12-23T18:07:34.117Z,7.20
2018-12-23T18:10:02.994Z,6.93
2018-12-23T18:12:51.060Z,5.33
2018-12-23T18:15:39.232Z,6.43
2018-12-23T18:18:19.741Z,5.90
2018-12-23T18:21:00.311Z,5.80
2018-12-23T18:23:41.219Z,6.23
2018-12-23T18:26:21.781Z,5.70
2018-12-23T18:29:02.615Z,6.10
2018-12-23T18:31:43.174Z,4.87
2018-12-23T18:34:12.014Z,4.63
2018-12-23T18:37:00.121Z,5.03
2018-12-23T18:39:29.016Z,4.50
2018-12-23T18:42:17.040Z,4.97
2018-12-23T18:44:58.317Z,5.23
2018-12-23T18:47:39.573Z,3.77
2018-12-23T18:50:20.390Z,4.30
2018-12-23T18:53:08.466Z,4.20
2018-12-23T18:55:56.572Z,3.80
2018-12-23T18:58:37.544Z,3.87
2018-12-23T19:01:17.027Z,3.70
2018-12-23T19:03:58.069Z,3.00
2018-12-23T19:06:38.740Z,3.43
2018-12-23T19:09:19.085Z,3.57
2018-12-23T19:11:59.778Z,2.80
2018-12-23T19:14:40.664Z,2.50
2018-12-23T19:17:21.123Z,2.47
2018-12-23T19:20:01.925Z,2.70
2018-12-23T19:22:43.196Z,2.43
2018-12-23T19:25:23.951Z,2.60
2018-12-23T19:28:31.223Z,2.70
2018-12-23T19:31:38.488Z,2.10
2018-12-23T19:34:19.008Z,1.90
2018-12-23T19:36:59.645Z,2.10
2018-12-23T19:39:40.515Z,2.10
2018-12-23T19:42:21.141Z,2.40
2018-12-23T19:45:01.770Z,2.07
2018-12-23T19:47:42.987Z,2.03
2018-12-23T19:50:47.577Z,1.80
2018-12-23T19:53:27.918Z,1.57
2018-12-23T19:56:08.742Z,1.57
2018-12-23T19:58:49.658Z,1.80
2018-12-23T20:01:30.454Z,1.70
2018-12-23T20:04:11.420Z,1.87
2018-12-23T20:06:52.296Z,2.13
2018-12-23T20:09:32.932Z,1.83
2018-12-23T20:12:14.036Z,1.90
2018-12-23T20:14:55.381Z,1.60
2018-12-23T20:17:36.149Z,1.87
2018-12-23T20:20:16.864Z,2.00
2018-12-23T20:22:57.473Z,1.87
2018-12-23T20:25:38.561Z,2.03
2018-12-23T20:28:19.313Z,1.83
2018-12-23T20:31:00.019Z,2.10
2018-12-23T20:33:40.728Z,2.07
2018-12-23T20:36:57.836Z,1.60
2018-12-23T20:40:19.022Z,1.50
2018-12-23T20:43:17.291Z,1.20
2018-12-23T20:46:24.107Z,1.33
2018-12-23T20:49:19.581Z,1.37
2018-12-23T20:52:13.949Z,1.30
2018-12-23T20:55:10.492Z,1.23
2018-12-23T20:58:13.655Z,1.30
2018-12-23T21:01:14.031Z,1.27
2018-12-23T21:04:09.768Z,1.50
2018-12-23T21:07:14.496Z,0.90
2018-12-23T21:10:20.788Z,0.70
2018-12-23T21:13:21.950Z,1.10
2018-12-23T21:16:24.084Z,1.10
2018-12-23T21:19:17.513Z,1.23
2018-12-23T21:22:13.435Z,1.37
2018-12-23T21:25:38.700Z,1.47
2018-12-23T21:28:48.938Z,1.50
2018-12-23T21:31:48.630Z,2.30
2018-12-23T21:34:50.887Z,1.70
2018-12-23T21:38:12.171Z,1.90
2018-12-23T21:41:28.672Z,2.40
2018-12-23T21:44:34.204Z,1.80
2018-12-23T21:47:46.292Z,2.00
2018-12-23T21:50:51.890Z,2.20
2018-12-23T21:53:59.124Z,1.80
2018-12-23T21:57:03.885Z,1.70
2018-12-23T22:00:12.419Z,1.30
2018-12-23T22:02:55.679Z,1.40
2018-12-23T22:06:03.683Z,1.53
2018-12-23T22:09:31.606Z,1.70
2018-12-23T22:12:37.995Z,1.60
2018-12-23T22:15:06.905Z,1.20
2018-12-23T22:17:35.708Z,1.30
2018-12-23T22:20:04.893Z,1.23
2018-12-23T22:22:33.684Z,1.20
2018-12-23T22:25:02.484Z,1.43
2018-12-23T22:27:31.319Z,1.30
2018-12-23T22:30:00.180Z,1.50
2018-12-23T22:32:29.120Z,1.70
2018-12-23T22:34:58.053Z,1.73
2018-12-23T22:37:26.933Z,1.57
2018-12-23T22:39:55.731Z,1.43
2018-12-23T22:42:24.571Z,1.50
2018-12-23T22:44:53.379Z,1.30
2018-12-23T22:47:22.214Z,1.50
2018-12-23T22:49:51.002Z,1.40
2018-12-23T22:52:19.941Z,1.67
2018-12-23T22:54:48.735Z,1.80
2018-12-23T22:57:17.565Z,1.87
2018-12-23T22:59:55.604Z,2.13
2018-12-23T23:02:24.536Z,1.60
2018-12-23T23:04:53.416Z,1.70
2018-12-23T23:07:22.327Z,1.60
2018-12-23T23:09:51.119Z,1.50
2018-12-23T23:12:20.060Z,1.93
2018-12-23T23:14:48.947Z,1.37
2018-12-23T23:17:18.064Z,1.80
2018-12-23T23:19:46.943Z,1.80
2018-12-23T23:22:15.759Z,1.97
2018-12-23T23:24:44.572Z,2.10
2018-12-23T23:27:13.539Z,2.00
2018-12-23T23:29:42.407Z,2.30
2018-12-23T23:32:30.442Z,2.10
2018-12-23T23:35:18.737Z,2.33
2018-12-23T23:37:59.524Z,2.57
2018-12-23T23:40:40.132Z,3.30
2018-12-23T23:43:21.043Z,3.83
2018-12-23T23:46:01.747Z,4.03
2018-12-23T23:48:42.400Z,3.80
2018-12-23T23:51:23.141Z,5.13
2018-12-23T23:54:03.937Z,4.53
2018-12-23T23:56:44.617Z,4.30
2018-12-23T23:59:25.480Z,4.67
